sensor_id;sensor_type;location;lat;lon;timestamp;pressure;altitude;pressure_sealevel;temperature;humidity
16793;BME280;8513;42.662;23.350;2022-09-20T00:01:09;94979.44;;;11.91;51.77
16793;BME280;8513;42.662;23.350;2022-09-20T00:03:36;94984.97;;;11.72;52.24
16793;BME280;8513;42.662;23.350;2022-09-20T00:06:04;94992.66;;;11.65;52.65
16793;BME280;8513;42.662;23.350;2022-09-20T00:08:29;94992.41;;;11.76;52.03
16793;BME280;8513;42.662;23.350;2022-09-20T00:11:03;94991.03;;;11.64;52.09
16793;BME280;8513;42.662;23.350;2022-09-20T00:13:29;94993.34;;;11.67;52.08
16793;BME280;8513;42.662;23.350;2022-09-20T00:15:55;95001.22;;;11.67;52.09
16793;BME280;8513;42.662;23.350;2022-09-20T00:18:21;94985.06;;;11.62;51.85
16793;BME280;8513;42.662;23.350;2022-09-20T00:20:47;94995.97;;;11.67;51.71
16793;BME280;8513;42.662;23.350;2022-09-20T00:23:13;94992.97;;;11.62;52.16
16793;BME280;8513;42.662;23.350;2022-09-20T00:25:39;94997.72;;;11.50;51.95
16793;BME280;8513;42.662;23.350;2022-09-20T00:28:05;95007.28;;;11.59;51.80
16793;BME280;8513;42.662;23.350;2022-09-20T00:30:34;94998.41;;;11.60;51.88
16793;BME280;8513;42.662;23.350;2022-09-20T00:33:00;94993.97;;;11.61;51.99
16793;BME280;8513;42.662;23.350;2022-09-20T00:35:26;94993.41;;;11.49;52.39
16793;BME280;8513;42.662;23.350;2022-09-20T00:37:51;94989.97;;;11.48;52.20
16793;BME280;8513;42.662;23.350;2022-09-20T00:40:19;94992.41;;;11.42;52.16
16793;BME280;8513;42.662;23.350;2022-09-20T00:42:46;94994.91;;;11.52;52.02
16793;BME280;8513;42.662;23.350;2022-09-20T00:45:24;94995.53;;;11.45;51.96
16793;BME280;8513;42.662;23.350;2022-09-20T00:48:01;94986.38;;;11.50;51.62
16793;BME280;8513;42.662;23.350;2022-09-20T00:50:39;94990.38;;;11.36;52.36
16793;BME280;8513;42.662;23.350;2022-09-20T00:53:10;94986.63;;;11.38;51.98
16793;BME280;8513;42.662;23.350;2022-09-20T00:55:40;94991.66;;;11.23;52.30
16793;BME280;8513;42.662;23.350;2022-09-20T00:58:07;95000.72;;;11.29;52.16
16793;BME280;8513;42.662;23.350;2022-09-20T01:00:33;94994.78;;;11.27;52.34
16793;BME280;8513;42.662;23.350;2022-09-20T01:03:03;94985.22;;;11.18;52.36
16793;BME280;8513;42.662;23.350;2022-09-20T01:05:30;94983.41;;;11.18;52.01
16793;BME280;8513;42.662;23.350;2022-09-20T01:07:57;94987.72;;;11.27;51.80
16793;BME280;8513;42.662;23.350;2022-09-20T01:10:22;94994.13;;;11.25;51.68
16793;BME280;8513;42.662;23.350;2022-09-20T01:12:49;94992.38;;;11.34;50.96
16793;BME280;8513;42.662;23.350;2022-09-20T01:15:16;94991.19;;;11.28;50.61
16793;BME280;8513;42.662;23.350;2022-09-20T01:17:46;94991.03;;;11.30;50.92
16793;BME280;8513;42.662;23.350;2022-09-20T01:20:26;94995.16;;;11.32;50.76
16793;BME280;8513;42.662;23.350;2022-09-20T01:28:56;94990.88;;;11.31;50.27
16793;BME280;8513;42.662;23.350;2022-09-20T01:31:25;94979.81;;;11.27;49.94
16793;BME280;8513;42.662;23.350;2022-09-20T01:33:53;94976.97;;;11.13;50.08
16793;BME280;8513;42.662;23.350;2022-09-20T01:36:43;94974.31;;;11.13;50.42
16793;BME280;8513;42.662;23.350;2022-09-20T01:42:13;94979.06;;;11.09;50.26
16793;BME280;8513;42.662;23.350;2022-09-20T01:55:43;94996.72;;;10.91;51.23
16793;BME280;8513;42.662;23.350;2022-09-20T02:04:14;94991.56;;;10.81;51.66
16793;BME280;8513;42.662;23.350;2022-09-20T02:10:04;94968.88;;;10.80;51.84
16793;BME280;8513;42.662;23.350;2022-09-20T02:15:15;94966.78;;;10.66;52.72
16793;BME280;8513;42.662;23.350;2022-09-20T02:26:51;94968.09;;;10.44;53.61
16793;BME280;8513;42.662;23.350;2022-09-20T02:35:00;94972.97;;;10.56;52.99
16793;BME280;8513;42.662;23.350;2022-09-20T02:40:38;94978.06;;;10.58;52.78
16793;BME280;8513;42.662;23.350;2022-09-20T02:44:00;94985.56;;;10.53;52.92
16793;BME280;8513;42.662;23.350;2022-09-20T02:52:36;94983.47;;;10.21;54.57
16793;BME280;8513;42.662;23.350;2022-09-20T02:55:36;94999.22;;;10.21;55.45
16793;BME280;8513;42.662;23.350;2022-09-20T02:58:24;94995.31;;;10.07;56.19
16793;BME280;8513;42.662;23.350;2022-09-20T03:06:46;95002.75;;;9.93;57.55
16793;BME280;8513;42.662;23.350;2022-09-20T03:09:52;94995.28;;;9.89;57.71
16793;BME280;8513;42.662;23.350;2022-09-20T03:12:47;94995.84;;;9.92;57.21
16793;BME280;8513;42.662;23.350;2022-09-20T03:15:34;94996.91;;;10.00;57.15
16793;BME280;8513;42.662;23.350;2022-09-20T03:18:06;94987.56;;;9.87;57.17
16793;BME280;8513;42.662;23.350;2022-09-20T03:31:53;95021.56;;;9.89;56.73
16793;BME280;8513;42.662;23.350;2022-09-20T03:37:33;95009.75;;;9.75;57.20
16793;BME280;8513;42.662;23.350;2022-09-20T03:40:11;95016.13;;;9.72;57.16
16793;BME280;8513;42.662;23.350;2022-09-20T03:42:50;95009.03;;;9.83;56.67
16793;BME280;8513;42.662;23.350;2022-09-20T03:45:28;95018.75;;;9.72;57.30
16793;BME280;8513;42.662;23.350;2022-09-20T03:51:02;95018.19;;;9.79;56.71
16793;BME280;8513;42.662;23.350;2022-09-20T04:04:23;95013.78;;;9.69;56.66
16793;BME280;8513;42.662;23.350;2022-09-20T04:12:48;95026.81;;;9.61;56.71
16793;BME280;8513;42.662;23.350;2022-09-20T04:18:20;95031.88;;;9.72;56.51
16793;BME280;8513;42.662;23.350;2022-09-20T04:23:49;95047.78;;;9.71;56.23
16793;BME280;8513;42.662;23.350;2022-09-20T04:26:43;95044.88;;;9.74;56.09
16793;BME280;8513;42.662;23.350;2022-09-20T04:32:27;95041.88;;;9.59;57.19
16793;BME280;8513;42.662;23.350;2022-09-20T04:37:45;95038.94;;;9.72;57.12
16793;BME280;8513;42.662;23.350;2022-09-20T04:43:07;95058.44;;;9.69;57.41
16793;BME280;8513;42.662;23.350;2022-09-20T05:00:15;95067.38;;;9.77;57.07
16793;BME280;8513;42.662;23.350;2022-09-20T05:05:52;95055.56;;;9.90;56.60
16793;BME280;8513;42.662;23.350;2022-09-20T05:19:30;95076.38;;;10.02;56.30
16793;BME280;8513;42.662;23.350;2022-09-20T05:35:23;95068.91;;;10.34;55.80
16793;BME280;8513;42.662;23.350;2022-09-20T05:40:37;95076.22;;;10.31;55.95
16793;BME280;8513;42.662;23.350;2022-09-20T05:43:12;95077.13;;;10.40;55.57
16793;BME280;8513;42.662;23.350;2022-09-20T06:01:54;95078.97;;;10.57;55.31
16793;BME280;8513;42.662;23.350;2022-09-20T06:04:30;95085.06;;;10.75;54.14
16793;BME280;8513;42.662;23.350;2022-09-20T06:07:35;95082.56;;;10.74;53.72
16793;BME280;8513;42.662;23.350;2022-09-20T06:10:29;95083.09;;;10.77;53.92
16793;BME280;8513;42.662;23.350;2022-09-20T06:13:07;95074.59;;;10.84;53.78
16793;BME280;8513;42.662;23.350;2022-09-20T06:15:49;95088.88;;;10.99;53.73
16793;BME280;8513;42.662;23.350;2022-09-20T06:18:38;95078.78;;;11.12;53.53
16793;BME280;8513;42.662;23.350;2022-09-20T06:21:34;95076.13;;;11.12;52.89
16793;BME280;8513;42.662;23.350;2022-09-20T06:24:01;95080.41;;;11.13;52.98
16793;BME280;8513;42.662;23.350;2022-09-20T06:26:34;95084.59;;;11.24;52.86
16793;BME280;8513;42.662;23.350;2022-09-20T06:29:06;95079.06;;;11.35;52.57
16793;BME280;8513;42.662;23.350;2022-09-20T06:31:36;95074.44;;;11.29;53.23
16793;BME280;8513;42.662;23.350;2022-09-20T06:36:34;95076.31;;;11.37;52.23
16793;BME280;8513;42.662;23.350;2022-09-20T06:42:22;95079.38;;;11.58;52.39
16793;BME280;8513;42.662;23.350;2022-09-20T06:44:47;95072.97;;;11.61;52.27
16793;BME280;8513;42.662;23.350;2022-09-20T06:47:14;95082.28;;;11.81;51.70
16793;BME280;8513;42.662;23.350;2022-09-20T06:49:40;95077.00;;;11.81;51.84
16793;BME280;8513;42.662;23.350;2022-09-20T06:52:07;95080.50;;;11.82;51.76
16793;BME280;8513;42.662;23.350;2022-09-20T06:54:36;95070.06;;;11.72;51.47
16793;BME280;8513;42.662;23.350;2022-09-20T06:57:03;95089.19;;;11.74;52.31
16793;BME280;8513;42.662;23.350;2022-09-20T06:59:30;95087.78;;;11.88;51.01
16793;BME280;8513;42.662;23.350;2022-09-20T07:01:56;95081.88;;;11.68;51.37
16793;BME280;8513;42.662;23.350;2022-09-20T07:04:21;95089.97;;;11.66;50.86
16793;BME280;8513;42.662;23.350;2022-09-20T07:06:49;95091.66;;;11.76;50.89
16793;BME280;8513;42.662;23.350;2022-09-20T07:09:15;95092.59;;;11.93;50.91
16793;BME280;8513;42.662;23.350;2022-09-20T07:11:41;95094.91;;;11.96;50.64
16793;BME280;8513;42.662;23.350;2022-09-20T07:14:09;95086.56;;;12.08;50.17
16793;BME280;8513;42.662;23.350;2022-09-20T07:16:34;95099.59;;;12.18;50.51
16793;BME280;8513;42.662;23.350;2022-09-20T07:19:02;95091.06;;;12.24;49.29
16793;BME280;8513;42.662;23.350;2022-09-20T07:21:27;95101.78;;;12.31;49.33
16793;BME280;8513;42.662;23.350;2022-09-20T07:23:52;95088.47;;;12.32;48.92
16793;BME280;8513;42.662;23.350;2022-09-20T07:26:24;95084.50;;;12.36;49.36
16793;BME280;8513;42.662;23.350;2022-09-20T07:28:51;95088.31;;;12.50;49.55
16793;BME280;8513;42.662;23.350;2022-09-20T07:31:19;95088.66;;;12.47;47.69
16793;BME280;8513;42.662;23.350;2022-09-20T07:33:45;95089.34;;;12.57;47.30
16793;BME280;8513;42.662;23.350;2022-09-20T07:36:11;95089.31;;;12.49;47.92
16793;BME280;8513;42.662;23.350;2022-09-20T07:38:37;95088.66;;;12.55;47.35
16793;BME280;8513;42.662;23.350;2022-09-20T07:41:03;95103.03;;;12.77;48.57
16793;BME280;8513;42.662;23.350;2022-09-20T07:43:30;95095.16;;;12.86;46.90
16793;BME280;8513;42.662;23.350;2022-09-20T07:45:56;95096.78;;;12.78;46.45
16793;BME280;8513;42.662;23.350;2022-09-20T07:48:25;95085.72;;;12.67;46.57
16793;BME280;8513;42.662;23.350;2022-09-20T07:50:53;95088.06;;;12.78;47.73
16793;BME280;8513;42.662;23.350;2022-09-20T07:53:18;95087.88;;;12.88;46.72
16793;BME280;8513;42.662;23.350;2022-09-20T07:56:16;95088.22;;;13.01;46.18
16793;BME280;8513;42.662;23.350;2022-09-20T07:58:42;95084.25;;;13.05;45.48
16793;BME280;8513;42.662;23.350;2022-09-20T08:01:11;95087.56;;;13.15;45.09
16793;BME280;8513;42.662;23.350;2022-09-20T08:03:37;95077.34;;;13.20;44.42
16793;BME280;8513;42.662;23.350;2022-09-20T08:06:08;95084.94;;;13.32;45.78
16793;BME280;8513;42.662;23.350;2022-09-20T08:08:35;95081.28;;;13.49;45.45
16793;BME280;8513;42.662;23.350;2022-09-20T08:13:34;95080.44;;;13.49;46.35
16793;BME280;8513;42.662;23.350;2022-09-20T08:16:03;95076.81;;;13.50;45.90
16793;BME280;8513;42.662;23.350;2022-09-20T08:18:29;95075.50;;;13.54;44.25
16793;BME280;8513;42.662;23.350;2022-09-20T08:20:55;95069.53;;;13.52;44.62
16793;BME280;8513;42.662;23.350;2022-09-20T08:23:20;95074.16;;;13.58;43.89
16793;BME280;8513;42.662;23.350;2022-09-20T08:25:46;95070.63;;;13.74;44.03
16793;BME280;8513;42.662;23.350;2022-09-20T08:28:13;95083.47;;;13.93;42.24
16793;BME280;8513;42.662;23.350;2022-09-20T08:30:38;95074.88;;;13.99;41.83
16793;BME280;8513;42.662;23.350;2022-09-20T08:33:04;95072.50;;;14.12;41.54
16793;BME280;8513;42.662;23.350;2022-09-20T08:35:34;95064.16;;;14.24;41.72
16793;BME280;8513;42.662;23.350;2022-09-20T08:37:59;95051.72;;;14.32;40.99
16793;BME280;8513;42.662;23.350;2022-09-20T08:40:27;95049.25;;;14.31;40.52
16793;BME280;8513;42.662;23.350;2022-09-20T08:42:54;95057.66;;;14.34;40.02
16793;BME280;8513;42.662;23.350;2022-09-20T08:45:22;95056.84;;;14.34;38.99
16793;BME280;8513;42.662;23.350;2022-09-20T08:48:00;95057.56;;;14.51;39.31
16793;BME280;8513;42.662;23.350;2022-09-20T08:50:29;95050.72;;;14.65;38.64
16793;BME280;8513;42.662;23.350;2022-09-20T08:52:56;95051.97;;;14.77;39.51
16793;BME280;8513;42.662;23.350;2022-09-20T08:55:29;95051.06;;;14.62;39.34
16793;BME280;8513;42.662;23.350;2022-09-20T08:57:58;95050.47;;;14.51;39.87
16793;BME280;8513;42.662;23.350;2022-09-20T09:00:29;95050.63;;;14.58;40.00
16793;BME280;8513;42.662;23.350;2022-09-20T09:02:58;95042.47;;;14.68;38.84
16793;BME280;8513;42.662;23.350;2022-09-20T09:05:36;95041.22;;;14.78;38.27
16793;BME280;8513;42.662;23.350;2022-09-20T09:08:27;95050.16;;;14.77;38.37
16793;BME280;8513;42.662;23.350;2022-09-20T09:11:02;95044.16;;;14.84;37.82
16793;BME280;8513;42.662;23.350;2022-09-20T09:13:52;95041.75;;;14.97;37.93
16793;BME280;8513;42.662;23.350;2022-09-20T09:16:20;95029.53;;;15.11;38.84
16793;BME280;8513;42.662;23.350;2022-09-20T09:18:46;95025.19;;;15.33;37.98
16793;BME280;8513;42.662;23.350;2022-09-20T09:21:21;95024.97;;;15.72;38.00
16793;BME280;8513;42.662;23.350;2022-09-20T09:24:12;95033.63;;;15.96;37.11
16793;BME280;8513;42.662;23.350;2022-09-20T09:26:41;95023.97;;;16.24;36.57
16793;BME280;8513;42.662;23.350;2022-09-20T09:31:36;95013.88;;;16.13;36.71
16793;BME280;8513;42.662;23.350;2022-09-20T09:34:03;95012.28;;;16.34;36.55
16793;BME280;8513;42.662;23.350;2022-09-20T09:36:29;95015.00;;;16.04;36.81
16793;BME280;8513;42.662;23.350;2022-09-20T09:39:27;95014.81;;;15.91;36.82
16793;BME280;8513;42.662;23.350;2022-09-20T09:41:53;95007.69;;;15.76;37.54
16793;BME280;8513;42.662;23.350;2022-09-20T09:44:29;95001.72;;;15.89;36.60
16793;BME280;8513;42.662;23.350;2022-09-20T09:46:57;95005.09;;;16.13;36.76
16793;BME280;8513;42.662;23.350;2022-09-20T09:54:51;95008.31;;;15.78;36.98
16793;BME280;8513;42.662;23.350;2022-09-20T10:00:16;95005.47;;;16.09;36.39
16793;BME280;8513;42.662;23.350;2022-09-20T10:05:38;95001.97;;;16.09;36.17
16793;BME280;8513;42.662;23.350;2022-09-20T10:08:25;95008.78;;;15.97;36.88
16793;BME280;8513;42.662;23.350;2022-09-20T10:14:12;95000.66;;;16.56;33.97
16793;BME280;8513;42.662;23.350;2022-09-20T10:17:11;94992.41;;;16.87;33.84
16793;BME280;8513;42.662;23.350;2022-09-20T10:25:40;95003.03;;;16.29;34.46
16793;BME280;8513;42.662;23.350;2022-09-20T10:31:21;95003.22;;;16.28;34.99
16793;BME280;8513;42.662;23.350;2022-09-20T10:36:52;94996.09;;;16.71;34.73
16793;BME280;8513;42.662;23.350;2022-09-20T10:39:32;94977.38;;;17.29;32.96
16793;BME280;8513;42.662;23.350;2022-09-20T10:47:51;94996.25;;;16.85;32.74
16793;BME280;8513;42.662;23.350;2022-09-20T10:50:45;94990.81;;;16.71;33.66
16793;BME280;8513;42.662;23.350;2022-09-20T11:09:26;94985.00;;;17.67;31.33
16793;BME280;8513;42.662;23.350;2022-09-20T11:12:25;94979.03;;;17.65;31.55
16793;BME280;8513;42.662;23.350;2022-09-20T11:15:15;94966.81;;;17.36;32.52
16793;BME280;8513;42.662;23.350;2022-09-20T11:17:58;94973.75;;;17.37;31.36
16793;BME280;8513;42.662;23.350;2022-09-20T11:20:44;94990.09;;;17.34;31.42
16793;BME280;8513;42.662;23.350;2022-09-20T11:23:16;94965.19;;;17.41;31.02
16793;BME280;8513;42.662;23.350;2022-09-20T11:25:59;94966.81;;;17.36;31.62
16793;BME280;8513;42.662;23.350;2022-09-20T11:28:39;94960.69;;;17.42;31.58
16793;BME280;8513;42.662;23.350;2022-09-20T11:31:13;94963.34;;;17.35;30.68
16793;BME280;8513;42.662;23.350;2022-09-20T11:33:47;94964.16;;;17.71;30.73
16793;BME280;8513;42.662;23.350;2022-09-20T11:36:46;94959.25;;;18.16;30.27
16793;BME280;8513;42.662;23.350;2022-09-20T11:41:45;94948.84;;;18.34;30.50
16793;BME280;8513;42.662;23.350;2022-09-20T11:44:14;94962.75;;;18.36;30.56
16793;BME280;8513;42.662;23.350;2022-09-20T11:49:29;94959.06;;;18.24;30.33
16793;BME280;8513;42.662;23.350;2022-09-20T11:57:03;94946.63;;;18.71;30.14
16793;BME280;8513;42.662;23.350;2022-09-20T11:59:38;94938.47;;;18.72;29.64
16793;BME280;8513;42.662;23.350;2022-09-20T12:02:50;94945.16;;;18.35;30.42
16793;BME280;8513;42.662;23.350;2022-09-20T12:07:59;94939.25;;;18.46;30.18
16793;BME280;8513;42.662;23.350;2022-09-20T12:10:31;94941.16;;;18.86;29.73
16793;BME280;8513;42.662;23.350;2022-09-20T12:13:03;94939.72;;;18.97;29.26
16793;BME280;8513;42.662;23.350;2022-09-20T12:15:39;94935.19;;;19.30;28.99
16793;BME280;8513;42.662;23.350;2022-09-20T12:18:27;94938.34;;;19.86;27.97
16793;BME280;8513;42.662;23.350;2022-09-20T12:21:00;94944.53;;;19.79;28.22
16793;BME280;8513;42.662;23.350;2022-09-20T12:28:39;94929.88;;;18.84;28.97
16793;BME280;8513;42.662;23.350;2022-09-20T12:36:39;94926.03;;;19.85;26.84
16793;BME280;8513;42.662;23.350;2022-09-20T12:41:53;94917.28;;;20.16;26.25
16793;BME280;8513;42.662;23.350;2022-09-20T12:47:06;94922.97;;;21.40;24.97
16793;BME280;8513;42.662;23.350;2022-09-20T13:08:44;94921.41;;;42.26;5.99
16793;BME280;8513;42.662;23.350;2022-09-20T13:11:47;94931.06;;;41.88;6.09
16793;BME280;8513;42.662;23.350;2022-09-20T13:14:30;94929.25;;;43.23;4.70
16793;BME280;8513;42.662;23.350;2022-09-20T13:17:21;94918.38;;;43.72;4.27
16793;BME280;8513;42.662;23.350;2022-09-20T13:19:49;94923.50;;;43.93;4.65
16793;BME280;8513;42.662;23.350;2022-09-20T13:22:44;94926.44;;;44.23;4.39
16793;BME280;8513;42.662;23.350;2022-09-20T13:25:16;94914.50;;;44.96;3.65
16793;BME280;8513;42.662;23.350;2022-09-20T13:27:49;94926.31;;;42.17;5.17
16793;BME280;8513;42.662;23.350;2022-09-20T13:32:41;94913.72;;;44.95;3.44
16793;BME280;8513;42.662;23.350;2022-09-20T13:40:40;94913.25;;;44.17;3.84
16793;BME280;8513;42.662;23.350;2022-09-20T13:46:06;94925.66;;;46.31;2.75
16793;BME280;8513;42.662;23.350;2022-09-20T13:48:31;94908.97;;;45.56;3.05
16793;BME280;8513;42.662;23.350;2022-09-20T13:50:57;94916.47;;;45.89;2.94
16793;BME280;8513;42.662;23.350;2022-09-20T13:53:25;94918.44;;;44.41;3.72
16793;BME280;8513;42.662;23.350;2022-09-20T13:55:51;94914.97;;;46.36;2.63
16793;BME280;8513;42.662;23.350;2022-09-20T13:58:31;94917.56;;;46.18;2.83
16793;BME280;8513;42.662;23.350;2022-09-20T14:01:00;94920.56;;;46.92;2.33
16793;BME280;8513;42.662;23.350;2022-09-20T14:03:27;94915.88;;;47.10;2.23
16793;BME280;8513;42.662;23.350;2022-09-20T14:06:01;94918.09;;;46.79;2.70
16793;BME280;8513;42.662;23.350;2022-09-20T14:08:47;94917.88;;;47.10;2.45
16793;BME280;8513;42.662;23.350;2022-09-20T14:13:42;94908.06;;;46.19;2.96
16793;BME280;8513;42.662;23.350;2022-09-20T14:16:08;94911.59;;;45.79;2.69
16793;BME280;8513;42.662;23.350;2022-09-20T14:18:35;94902.97;;;45.20;2.99
16793;BME280;8513;42.662;23.350;2022-09-20T14:21:05;94907.38;;;44.68;3.54
16793;BME280;8513;42.662;23.350;2022-09-20T14:23:50;94908.59;;;44.97;3.81
16793;BME280;8513;42.662;23.350;2022-09-20T14:28:45;94906.25;;;45.29;4.10
16793;BME280;8513;42.662;23.350;2022-09-20T14:31:16;94894.91;;;44.81;4.11
16793;BME280;8513;42.662;23.350;2022-09-20T14:33:46;94907.16;;;44.08;4.70
16793;BME280;8513;42.662;23.350;2022-09-20T14:36:17;94905.84;;;43.59;4.61
16793;BME280;8513;42.662;23.350;2022-09-20T14:38:46;94908.91;;;45.19;4.11
16793;BME280;8513;42.662;23.350;2022-09-20T14:41:13;94899.53;;;39.15;6.99
16793;BME280;8513;42.662;23.350;2022-09-20T14:43:53;94907.25;;;36.95;8.66
16793;BME280;8513;42.662;23.350;2022-09-20T14:46:33;94909.16;;;40.33;6.46
16793;BME280;8513;42.662;23.350;2022-09-20T14:51:44;94915.69;;;41.87;5.23
16793;BME280;8513;42.662;23.350;2022-09-20T14:56:37;94911.09;;;37.55;7.94
16793;BME280;8513;42.662;23.350;2022-09-20T15:01:44;94915.84;;;40.69;6.29
16793;BME280;8513;42.662;23.350;2022-09-20T15:04:20;94915.69;;;40.90;6.31
16793;BME280;8513;42.662;23.350;2022-09-20T15:06:47;94919.72;;;40.81;6.59
16793;BME280;8513;42.662;23.350;2022-09-20T15:09:13;94926.16;;;40.48;5.86
16793;BME280;8513;42.662;23.350;2022-09-20T15:11:39;94920.13;;;40.09;6.16
16793;BME280;8513;42.662;23.350;2022-09-20T15:14:11;94921.59;;;38.56;7.30
16793;BME280;8513;42.662;23.350;2022-09-20T15:16:36;94909.19;;;38.71;7.22
16793;BME280;8513;42.662;23.350;2022-09-20T15:19:02;94917.06;;;37.40;8.11
16793;BME280;8513;42.662;23.350;2022-09-20T15:21:29;94903.44;;;36.48;8.79
16793;BME280;8513;42.662;23.350;2022-09-20T15:23:55;94910.47;;;31.00;12.90
16793;BME280;8513;42.662;23.350;2022-09-20T15:26:20;94901.00;;;27.92;15.87
16793;BME280;8513;42.662;23.350;2022-09-20T15:28:47;94907.06;;;25.04;18.62
16793;BME280;8513;42.662;23.350;2022-09-20T15:31:12;94893.63;;;23.73;20.34
16793;BME280;8513;42.662;23.350;2022-09-20T15:33:39;94904.69;;;22.40;22.31
16793;BME280;8513;42.662;23.350;2022-09-20T15:36:05;94910.16;;;21.97;23.47
16793;BME280;8513;42.662;23.350;2022-09-20T15:38:32;94894.97;;;21.79;24.46
16793;BME280;8513;42.662;23.350;2022-09-20T15:41:00;94905.66;;;21.97;24.71
16793;BME280;8513;42.662;23.350;2022-09-20T15:43:27;94899.50;;;21.35;25.27
16793;BME280;8513;42.662;23.350;2022-09-20T15:48:43;94912.72;;;20.86;26.10
16793;BME280;8513;42.662;23.350;2022-09-20T15:51:10;94912.03;;;20.34;27.10
16793;BME280;8513;42.662;23.350;2022-09-20T15:53:43;94911.53;;;20.12;27.26
16793;BME280;8513;42.662;23.350;2022-09-20T15:56:19;94917.03;;;19.72;27.46
16793;BME280;8513;42.662;23.350;2022-09-20T15:58:55;94919.38;;;19.35;28.71
16793;BME280;8513;42.662;23.350;2022-09-20T16:01:32;94928.78;;;19.45;28.77
16793;BME280;8513;42.662;23.350;2022-09-20T16:04:15;94932.56;;;18.90;30.52
16793;BME280;8513;42.662;23.350;2022-09-20T16:06:44;94919.63;;;18.74;30.49
16793;BME280;8513;42.662;23.350;2022-09-20T16:09:10;94936.34;;;18.41;31.20
16793;BME280;8513;42.662;23.350;2022-09-20T16:11:37;94922.06;;;18.62;30.66
16793;BME280;8513;42.662;23.350;2022-09-20T16:14:03;94927.78;;;18.59;31.02
16793;BME280;8513;42.662;23.350;2022-09-20T16:16:29;94930.06;;;18.56;31.08
16793;BME280;8513;42.662;23.350;2022-09-20T16:18:55;94934.75;;;18.60;30.44
16793;BME280;8513;42.662;23.350;2022-09-20T16:21:41;94938.63;;;18.31;31.20
16793;BME280;8513;42.662;23.350;2022-09-20T16:24:08;94936.22;;;17.88;31.63
16793;BME280;8513;42.662;23.350;2022-09-20T16:26:34;94932.41;;;17.69;32.49
16793;BME280;8513;42.662;23.350;2022-09-20T16:29:01;94933.84;;;17.65;32.05
16793;BME280;8513;42.662;23.350;2022-09-20T16:31:36;94943.66;;;17.64;32.24
16793;BME280;8513;42.662;23.350;2022-09-20T16:34:16;94939.16;;;17.65;32.90
16793;BME280;8513;42.662;23.350;2022-09-20T16:36:50;94943.59;;;17.51;32.82
16793;BME280;8513;42.662;23.350;2022-09-20T16:39:17;94945.38;;;17.09;33.73
16793;BME280;8513;42.662;23.350;2022-09-20T16:41:44;94937.06;;;17.19;33.16
16793;BME280;8513;42.662;23.350;2022-09-20T16:44:10;94942.91;;;17.08;33.63
16793;BME280;8513;42.662;23.350;2022-09-20T16:46:37;94940.53;;;17.19;33.36
16793;BME280;8513;42.662;23.350;2022-09-20T16:49:07;94949.56;;;16.97;34.04
16793;BME280;8513;42.662;23.350;2022-09-20T16:51:36;94955.78;;;16.83;34.39
16793;BME280;8513;42.662;23.350;2022-09-20T16:54:03;94959.66;;;16.80;34.54
16793;BME280;8513;42.662;23.350;2022-09-20T16:56:32;94952.75;;;16.64;34.83
16793;BME280;8513;42.662;23.350;2022-09-20T16:58:59;94965.88;;;16.72;34.87
16793;BME280;8513;42.662;23.350;2022-09-20T17:01:25;94963.63;;;16.48;35.29
16793;BME280;8513;42.662;23.350;2022-09-20T17:03:51;94972.09;;;16.37;35.40
16793;BME280;8513;42.662;23.350;2022-09-20T17:06:17;94967.72;;;16.29;35.59
16793;BME280;8513;42.662;23.350;2022-09-20T17:08:43;94969.53;;;16.07;36.15
16793;BME280;8513;42.662;23.350;2022-09-20T17:11:32;94966.59;;;16.02;36.96
16793;BME280;8513;42.662;23.350;2022-09-20T17:13:57;94971.53;;;15.90;37.19
16793;BME280;8513;42.662;23.350;2022-09-20T17:16:28;94963.41;;;15.92;36.25
16793;BME280;8513;42.662;23.350;2022-09-20T17:18:59;94969.56;;;15.62;37.11
16793;BME280;8513;42.662;23.350;2022-09-20T17:21:27;94978.53;;;15.76;37.13
16793;BME280;8513;42.662;23.350;2022-09-20T17:23:55;94971.75;;;15.74;36.97
16793;BME280;8513;42.662;23.350;2022-09-20T17:26:22;94973.22;;;15.76;36.85
16793;BME280;8513;42.662;23.350;2022-09-20T17:28:50;94976.22;;;15.43;37.75
16793;BME280;8513;42.662;23.350;2022-09-20T17:31:19;94976.66;;;15.47;37.56
16793;BME280;8513;42.662;23.350;2022-09-20T17:33:45;94974.22;;;15.46;37.56
16793;BME280;8513;42.662;23.350;2022-09-20T17:36:16;94979.41;;;15.39;37.84
16793;BME280;8513;42.662;23.350;2022-09-20T17:38:44;94982.69;;;15.26;38.31
16793;BME280;8513;42.662;23.350;2022-09-20T17:41:17;94976.41;;;15.27;38.53
16793;BME280;8513;42.662;23.350;2022-09-20T17:43:44;94971.47;;;15.24;38.23
16793;BME280;8513;42.662;23.350;2022-09-20T17:48:39;94979.38;;;15.09;38.70
16793;BME280;8513;42.662;23.350;2022-09-20T17:51:06;94986.47;;;14.94;39.25
16793;BME280;8513;42.662;23.350;2022-09-20T17:53:34;94987.41;;;15.01;39.26
16793;BME280;8513;42.662;23.350;2022-09-20T17:56:00;94990.91;;;15.16;39.16
16793;BME280;8513;42.662;23.350;2022-09-20T17:58:26;94987.53;;;15.08;39.05
16793;BME280;8513;42.662;23.350;2022-09-20T18:00:52;94988.22;;;15.02;39.15
16793;BME280;8513;42.662;23.350;2022-09-20T18:03:22;94993.44;;;14.72;39.76
16793;BME280;8513;42.662;23.350;2022-09-20T18:05:48;94989.38;;;14.84;39.86
16793;BME280;8513;42.662;23.350;2022-09-20T18:08:15;94985.22;;;14.67;40.23
16793;BME280;8513;42.662;23.350;2022-09-20T18:10:41;94995.28;;;14.71;40.47
16793;BME280;8513;42.662;23.350;2022-09-20T18:13:07;95001.16;;;14.59;40.63
16793;BME280;8513;42.662;23.350;2022-09-20T18:15:33;95001.47;;;14.64;40.44
16793;BME280;8513;42.662;23.350;2022-09-20T18:17:59;95000.19;;;14.60;40.69
16793;BME280;8513;42.662;23.350;2022-09-20T18:20:24;95003.16;;;14.56;40.75
16793;BME280;8513;42.662;23.350;2022-09-20T18:22:49;95004.16;;;14.55;40.89
16793;BME280;8513;42.662;23.350;2022-09-20T18:25:17;95008.75;;;14.62;40.79
16793;BME280;8513;42.662;23.350;2022-09-20T18:27:42;95012.47;;;14.52;40.74
16793;BME280;8513;42.662;23.350;2022-09-20T18:30:08;95011.44;;;14.53;40.44
16793;BME280;8513;42.662;23.350;2022-09-20T18:32:34;95014.41;;;14.27;41.74
16793;BME280;8513;42.662;23.350;2022-09-20T18:34:59;95008.06;;;14.37;41.06